sensor_id;sensor_type;location;lat;lon;timestamp;temperature;humidity
4002;DHT22;2015;48.670;9.060;2023-04-03T00:02:17;3.60;99.90
4002;DHT22;2015;48.670;9.060;2023-04-03T00:04:49;3.60;99.90
4002;DHT22;2015;48.670;9.060;2023-04-03T00:07:21;3.60;99.90
4002;DHT22;2015;48.670;9.060;2023-04-03T00:09:52;3.60;99.90
4002;DHT22;2015;48.670;9.060;2023-04-03T00:12:24;3.60;99.90
4002;DHT22;2015;48.670;9.060;2023-04-03T00:14:56;3.50;99.90
4002;DHT22;2015;48.670;9.060;2023-04-03T00:17:28;3.50;99.90
4002;DHT22;2015;48.670;9.060;2023-04-03T00:20:00;3.50;99.90
4002;DHT22;2015;48.670;9.060;2023-04-03T00:22:45;3.50;99.90
4002;DHT22;2015;48.670;9.060;2023-04-03T00:25:17;3.50;99.90
4002;DHT22;2015;48.670;9.060;2023-04-03T00:27:49;3.50;99.90
4002;DHT22;2015;48.670;9.060;2023-04-03T00:30:21;3.50;99.90
4002;DHT22;2015;48.670;9.060;2023-04-03T00:32:54;3.40;99.90
4002;DHT22;2015;48.670;9.060;2023-04-03T00:35:26;3.40;99.90
4002;DHT22;2015;48.670;9.060;2023-04-03T00:37:58;3.40;99.90
4002;DHT22;2015;48.670;9.060;2023-04-03T00:40:38;3.40;99.90
4002;DHT22;2015;48.670;9.060;2023-04-03T00:43:13;3.40;99.90
4002;DHT22;2015;48.670;9.060;2023-04-03T00:45:54;3.40;99.90
4002;DHT22;2015;48.670;9.060;2023-04-03T00:48:32;3.30;99.90
4002;DHT22;2015;48.670;9.060;2023-04-03T00:51:08;3.30;99.90
4002;DHT22;2015;48.670;9.060;2023-04-03T00:53:59;3.30;99.90
4002;DHT22;2015;48.670;9.060;2023-04-03T00:56:32;3.30;99.90
4002;DHT22;2015;48.670;9.060;2023-04-03T00:59:06;3.30;99.90
4002;DHT22;2015;48.670;9.060;2023-04-03T01:01:40;3.30;99.90
4002;DHT22;2015;48.670;9.060;2023-04-03T01:07:06;3.10;99.90
4002;DHT22;2015;48.670;9.060;2023-04-03T01:09:39;3.20;99.90
4002;DHT22;2015;48.670;9.060;2023-04-03T01:15:09;3.20;99.90
4002;DHT22;2015;48.670;9.060;2023-04-03T01:17:48;3.20;99.90
4002;DHT22;2015;48.670;9.060;2023-04-03T01:28:16;3.10;99.90
4002;DHT22;2015;48.670;9.060;2023-04-03T01:33:44;3.10;99.90
4002;DHT22;2015;48.670;9.060;2023-04-03T01:36:36;3.10;99.90
4002;DHT22;2015;48.670;9.060;2023-04-03T01:39:08;3.10;99.90
4002;DHT22;2015;48.670;9.060;2023-04-03T01:41:40;3.00;99.90
4002;DHT22;2015;48.670;9.060;2023-04-03T01:44:11;3.10;99.90
4002;DHT22;2015;48.670;9.060;2023-04-03T01:46:43;3.10;99.90
4002;DHT22;2015;48.670;9.060;2023-04-03T01:49:15;3.10;99.90
4002;DHT22;2015;48.670;9.060;2023-04-03T01:51:47;3.10;99.90
4002;DHT22;2015;48.670;9.060;2023-04-03T01:54:19;3.00;99.90
4002;DHT22;2015;48.670;9.060;2023-04-03T01:56:51;3.10;99.90
4002;DHT22;2015;48.670;9.060;2023-04-03T01:59:23;3.10;99.90
4002;DHT22;2015;48.670;9.060;2023-04-03T02:01:54;3.10;99.90
4002;DHT22;2015;48.670;9.060;2023-04-03T02:04:26;3.10;99.90
4002;DHT22;2015;48.670;9.060;2023-04-03T02:06:58;3.10;99.90
4002;DHT22;2015;48.670;9.060;2023-04-03T02:09:30;3.10;99.90
4002;DHT22;2015;48.670;9.060;2023-04-03T02:12:02;3.00;99.90
4002;DHT22;2015;48.670;9.060;2023-04-03T02:14:34;3.00;99.90
4002;DHT22;2015;48.670;9.060;2023-04-03T02:17:05;3.00;99.90
4002;DHT22;2015;48.670;9.060;2023-04-03T02:19:40;2.90;99.90
4002;DHT22;2015;48.670;9.060;2023-04-03T02:22:11;3.00;99.90
4002;DHT22;2015;48.670;9.060;2023-04-03T02:24:43;3.00;99.90
4002;DHT22;2015;48.670;9.060;2023-04-03T02:27:15;3.00;99.90
4002;DHT22;2015;48.670;9.060;2023-04-03T02:29:47;2.90;99.90
4002;DHT22;2015;48.670;9.060;2023-04-03T02:32:19;2.90;99.90
4002;DHT22;2015;48.670;9.060;2023-04-03T02:34:50;2.90;99.90
4002;DHT22;2015;48.670;9.060;2023-04-03T02:37:22;2.90;99.90
4002;DHT22;2015;48.670;9.060;2023-04-03T02:39:54;2.90;99.90
4002;DHT22;2015;48.670;9.060;2023-04-03T02:42:26;2.90;99.90
4002;DHT22;2015;48.670;9.060;2023-04-03T02:44:58;3.00;99.90
4002;DHT22;2015;48.670;9.060;2023-04-03T02:47:31;3.00;99.90
4002;DHT22;2015;48.670;9.060;2023-04-03T02:50:04;3.00;99.90
4002;DHT22;2015;48.670;9.060;2023-04-03T02:52:35;3.00;99.90
4002;DHT22;2015;48.670;9.060;2023-04-03T02:55:07;3.00;99.90
4002;DHT22;2015;48.670;9.060;2023-04-03T02:57:39;3.00;99.90
4002;DHT22;2015;48.670;9.060;2023-04-03T03:00:11;3.00;99.90
4002;DHT22;2015;48.670;9.060;2023-04-03T03:02:43;3.00;99.90
4002;DHT22;2015;48.670;9.060;2023-04-03T03:05:15;3.00;99.90
4002;DHT22;2015;48.670;9.060;2023-04-03T03:07:47;3.00;99.90
4002;DHT22;2015;48.670;9.060;2023-04-03T03:10:19;3.00;99.90
4002;DHT22;2015;48.670;9.060;2023-04-03T03:12:51;3.00;99.90
4002;DHT22;2015;48.670;9.060;2023-04-03T03:15:23;3.00;99.90
4002;DHT22;2015;48.670;9.060;2023-04-03T03:17:55;3.00;99.90
4002;DHT22;2015;48.670;9.060;2023-04-03T03:20:26;3.00;99.90
4002;DHT22;2015;48.670;9.060;2023-04-03T03:22:58;3.00;99.90
4002;DHT22;2015;48.670;9.060;2023-04-03T03:25:30;3.00;99.90
4002;DHT22;2015;48.670;9.060;2023-04-03T03:28:02;3.10;99.90
4002;DHT22;2015;48.670;9.060;2023-04-03T03:30:34;3.10;99.90
4002;DHT22;2015;48.670;9.060;2023-04-03T03:33:06;3.10;99.90
4002;DHT22;2015;48.670;9.060;2023-04-03T03:35:38;3.10;99.90
4002;DHT22;2015;48.670;9.060;2023-04-03T03:38:10;3.10;99.90
4002;DHT22;2015;48.670;9.060;2023-04-03T03:40:42;3.10;99.90
4002;DHT22;2015;48.670;9.060;2023-04-03T03:43:14;3.10;99.90
4002;DHT22;2015;48.670;9.060;2023-04-03T03:45:50;3.10;99.90
4002;DHT22;2015;48.670;9.060;2023-04-03T03:48:22;3.20;99.90
4002;DHT22;2015;48.670;9.060;2023-04-03T03:50:54;3.10;99.90
4002;DHT22;2015;48.670;9.060;2023-04-03T03:53:26;3.10;99.90
4002;DHT22;2015;48.670;9.060;2023-04-03T03:55:58;3.10;99.90
4002;DHT22;2015;48.670;9.060;2023-04-03T03:58:30;3.10;99.90
4002;DHT22;2015;48.670;9.060;2023-04-03T04:01:03;3.00;99.90
4002;DHT22;2015;48.670;9.060;2023-04-03T04:03:36;3.00;99.90
4002;DHT22;2015;48.670;9.060;2023-04-03T04:06:08;3.00;99.90
4002;DHT22;2015;48.670;9.060;2023-04-03T04:08:40;3.10;99.90
4002;DHT22;2015;48.670;9.060;2023-04-03T04:11:12;3.10;99.90
4002;DHT22;2015;48.670;9.060;2023-04-03T04:13:44;3.10;99.90
4002;DHT22;2015;48.670;9.060;2023-04-03T04:16:16;3.10;99.90
4002;DHT22;2015;48.670;9.060;2023-04-03T04:18:48;3.10;99.90
4002;DHT22;2015;48.670;9.060;2023-04-03T04:21:19;3.10;99.90
4002;DHT22;2015;48.670;9.060;2023-04-03T04:23:51;3.00;99.90
4002;DHT22;2015;48.670;9.060;2023-04-03T04:26:23;3.00;99.90
4002;DHT22;2015;48.670;9.060;2023-04-03T04:28:55;3.00;99.90
4002;DHT22;2015;48.670;9.060;2023-04-03T04:31:27;3.00;99.90
4002;DHT22;2015;48.670;9.060;2023-04-03T04:33:59;3.10;99.90
4002;DHT22;2015;48.670;9.060;2023-04-03T04:36:31;3.10;99.90
4002;DHT22;2015;48.670;9.060;2023-04-03T04:39:03;3.10;99.90
4002;DHT22;2015;48.670;9.060;2023-04-03T04:41:35;3.10;99.90
4002;DHT22;2015;48.670;9.060;2023-04-03T04:44:07;3.10;99.90
4002;DHT22;2015;48.670;9.060;2023-04-03T04:46:39;3.00;99.90
4002;DHT22;2015;48.670;9.060;2023-04-03T04:49:10;3.00;99.90
4002;DHT22;2015;48.670;9.060;2023-04-03T04:51:42;3.10;99.90
4002;DHT22;2015;48.670;9.060;2023-04-03T04:54:22;3.10;99.90
4002;DHT22;2015;48.670;9.060;2023-04-03T04:56:54;3.10;99.90
4002;DHT22;2015;48.670;9.060;2023-04-03T04:59:26;3.10;99.90
4002;DHT22;2015;48.670;9.060;2023-04-03T05:01:58;3.20;99.90
4002;DHT22;2015;48.670;9.060;2023-04-03T05:04:30;3.10;99.90
4002;DHT22;2015;48.670;9.060;2023-04-03T05:07:02;3.10;99.90
4002;DHT22;2015;48.670;9.060;2023-04-03T05:09:34;3.10;99.90
4002;DHT22;2015;48.670;9.060;2023-04-03T05:12:06;3.20;99.90
4002;DHT22;2015;48.670;9.060;2023-04-03T05:14:37;3.20;99.90
4002;DHT22;2015;48.670;9.060;2023-04-03T05:17:09;3.20;99.90
4002;DHT22;2015;48.670;9.060;2023-04-03T05:19:41;3.20;99.90
4002;DHT22;2015;48.670;9.060;2023-04-03T05:22:13;3.20;99.90
4002;DHT22;2015;48.670;9.060;2023-04-03T05:24:44;3.20;99.90
4002;DHT22;2015;48.670;9.060;2023-04-03T05:27:16;3.20;99.90
4002;DHT22;2015;48.670;9.060;2023-04-03T05:29:48;3.20;99.90
4002;DHT22;2015;48.670;9.060;2023-04-03T05:32:20;3.30;99.90
4002;DHT22;2015;48.670;9.060;2023-04-03T05:34:52;3.30;99.90
4002;DHT22;2015;48.670;9.060;2023-04-03T05:37:24;3.30;99.90
4002;DHT22;2015;48.670;9.060;2023-04-03T05:39:56;3.30;99.90
4002;DHT22;2015;48.670;9.060;2023-04-03T05:42:27;3.40;99.90
4002;DHT22;2015;48.670;9.060;2023-04-03T05:44:59;3.30;99.90
4002;DHT22;2015;48.670;9.060;2023-04-03T05:47:31;3.30;99.90
4002;DHT22;2015;48.670;9.060;2023-04-03T05:50:03;3.40;99.90
4002;DHT22;2015;48.670;9.060;2023-04-03T05:52:38;3.40;99.90
4002;DHT22;2015;48.670;9.060;2023-04-03T05:55:11;3.50;99.90
4002;DHT22;2015;48.670;9.060;2023-04-03T05:57:43;3.50;99.90
4002;DHT22;2015;48.670;9.060;2023-04-03T06:00:15;3.40;99.90
4002;DHT22;2015;48.670;9.060;2023-04-03T06:02:47;3.30;99.90
4002;DHT22;2015;48.670;9.060;2023-04-03T06:05:19;3.40;99.90
4002;DHT22;2015;48.670;9.060;2023-04-03T06:07:51;3.40;99.90
4002;DHT22;2015;48.670;9.060;2023-04-03T06:10:23;3.40;99.90
4002;DHT22;2015;48.670;9.060;2023-04-03T06:12:54;3.50;99.90
4002;DHT22;2015;48.670;9.060;2023-04-03T06:15:26;3.50;99.90
4002;DHT22;2015;48.670;9.060;2023-04-03T06:25:42;3.40;99.90
4002;DHT22;2015;48.670;9.060;2023-04-03T06:28:14;3.60;99.90
4002;DHT22;2015;48.670;9.060;2023-04-03T06:30:46;3.50;99.90
4002;DHT22;2015;48.670;9.060;2023-04-03T06:33:18;3.60;99.90
4002;DHT22;2015;48.670;9.060;2023-04-03T06:35:49;3.70;99.90
4002;DHT22;2015;48.670;9.060;2023-04-03T06:38:26;3.60;99.90
4002;DHT22;2015;48.670;9.060;2023-04-03T06:40:59;3.70;99.90
4002;DHT22;2015;48.670;9.060;2023-04-03T06:43:31;3.60;99.90
4002;DHT22;2015;48.670;9.060;2023-04-03T06:46:05;3.70;99.90
4002;DHT22;2015;48.670;9.060;2023-04-03T06:48:37;3.70;99.90
4002;DHT22;2015;48.670;9.060;2023-04-03T06:51:27;3.80;99.90
4002;DHT22;2015;48.670;9.060;2023-04-03T06:53:59;4.00;99.90
4002;DHT22;2015;48.670;9.060;2023-04-03T06:56:31;4.00;99.90
4002;DHT22;2015;48.670;9.060;2023-04-03T06:59:03;4.10;99.90
4002;DHT22;2015;48.670;9.060;2023-04-03T07:01:35;4.10;99.90
4002;DHT22;2015;48.670;9.060;2023-04-03T07:04:08;4.20;99.90
4002;DHT22;2015;48.670;9.060;2023-04-03T07:06:40;4.20;99.90
4002;DHT22;2015;48.670;9.060;2023-04-03T07:09:14;4.20;99.90
4002;DHT22;2015;48.670;9.060;2023-04-03T07:11:45;4.10;99.90
4002;DHT22;2015;48.670;9.060;2023-04-03T07:14:17;4.20;99.90
4002;DHT22;2015;48.670;9.060;2023-04-03T07:16:49;4.20;99.90
4002;DHT22;2015;48.670;9.060;2023-04-03T07:19:21;4.30;99.90
4002;DHT22;2015;48.670;9.060;2023-04-03T07:21:54;4.30;99.90
4002;DHT22;2015;48.670;9.060;2023-04-03T07:24:26;4.40;99.90
4002;DHT22;2015;48.670;9.060;2023-04-03T07:26:58;4.50;99.90
4002;DHT22;2015;48.670;9.060;2023-04-03T07:29:30;4.50;99.90
4002;DHT22;2015;48.670;9.060;2023-04-03T07:32:02;4.50;99.90
4002;DHT22;2015;48.670;9.060;2023-04-03T07:34:34;4.60;99.90
4002;DHT22;2015;48.670;9.060;2023-04-03T07:37:06;4.70;99.90
4002;DHT22;2015;48.670;9.060;2023-04-03T07:39:38;4.70;99.90
4002;DHT22;2015;48.670;9.060;2023-04-03T07:42:10;4.80;99.90
4002;DHT22;2015;48.670;9.060;2023-04-03T07:44:43;4.70;99.90
4002;DHT22;2015;48.670;9.060;2023-04-03T07:47:15;4.70;99.90
4002;DHT22;2015;48.670;9.060;2023-04-03T07:49:49;4.60;99.90
4002;DHT22;2015;48.670;9.060;2023-04-03T07:52:20;4.60;99.90
4002;DHT22;2015;48.670;9.060;2023-04-03T07:54:52;4.70;99.90
4002;DHT22;2015;48.670;9.060;2023-04-03T07:57:24;4.80;99.90
4002;DHT22;2015;48.670;9.060;2023-04-03T07:59:56;4.90;99.90
4002;DHT22;2015;48.670;9.060;2023-04-03T08:02:28;5.10;99.90
4002;DHT22;2015;48.670;9.060;2023-04-03T08:05:00;5.40;99.90
4002;DHT22;2015;48.670;9.060;2023-04-03T08:07:32;5.60;99.90
4002;DHT22;2015;48.670;9.060;2023-04-03T08:10:04;5.70;99.90
4002;DHT22;2015;48.670;9.060;2023-04-03T08:12:36;5.60;99.90
4002;DHT22;2015;48.670;9.060;2023-04-03T08:15:09;5.60;99.90
4002;DHT22;2015;48.670;9.060;2023-04-03T08:17:41;5.50;99.90
4002;DHT22;2015;48.670;9.060;2023-04-03T08:20:13;5.50;99.90
4002;DHT22;2015;48.670;9.060;2023-04-03T08:22:45;5.50;99.90
4002;DHT22;2015;48.670;9.060;2023-04-03T08:25:17;5.70;99.90
4002;DHT22;2015;48.670;9.060;2023-04-03T08:27:49;5.80;99.90
4002;DHT22;2015;48.670;9.060;2023-04-03T08:30:20;6.10;99.90
4002;DHT22;2015;48.670;9.060;2023-04-03T08:32:53;6.00;99.90
4002;DHT22;2015;48.670;9.060;2023-04-03T08:35:24;6.10;99.90
4002;DHT22;2015;48.670;9.060;2023-04-03T08:37:57;6.20;99.90
4002;DHT22;2015;48.670;9.060;2023-04-03T08:40:29;6.40;99.90
4002;DHT22;2015;48.670;9.060;2023-04-03T08:43:30;6.40;99.90
4002;DHT22;2015;48.670;9.060;2023-04-03T08:46:06;6.10;99.90
4002;DHT22;2015;48.670;9.060;2023-04-03T08:48:43;6.20;99.90
4002;DHT22;2015;48.670;9.060;2023-04-03T08:51:17;6.20;99.90
4002;DHT22;2015;48.670;9.060;2023-04-03T08:53:57;6.30;99.90
4002;DHT22;2015;48.670;9.060;2023-04-03T08:56:31;6.20;99.90
4002;DHT22;2015;48.670;9.060;2023-04-03T08:59:10;6.40;99.90
4002;DHT22;2015;48.670;9.060;2023-04-03T09:01:44;6.50;99.90
4002;DHT22;2015;48.670;9.060;2023-04-03T09:04:17;6.40;99.90
4002;DHT22;2015;48.670;9.060;2023-04-03T09:06:55;6.40;99.90
4002;DHT22;2015;48.670;9.060;2023-04-03T09:09:35;6.40;99.90
4002;DHT22;2015;48.670;9.060;2023-04-03T09:12:31;6.50;99.90
4002;DHT22;2015;48.670;9.060;2023-04-03T09:15:21;6.40;99.90
4002;DHT22;2015;48.670;9.060;2023-04-03T09:18:13;6.50;99.90
4002;DHT22;2015;48.670;9.060;2023-04-03T09:20:58;6.50;99.90
4002;DHT22;2015;48.670;9.060;2023-04-03T09:24:10;6.20;99.90
4002;DHT22;2015;48.670;9.060;2023-04-03T09:26:44;5.90;99.90
4002;DHT22;2015;48.670;9.060;2023-04-03T09:29:19;6.00;99.90
4002;DHT22;2015;48.670;9.060;2023-04-03T09:32:01;5.90;99.90
4002;DHT22;2015;48.670;9.060;2023-04-03T09:34:36;5.80;99.90
4002;DHT22;2015;48.670;9.060;2023-04-03T09:37:08;5.70;99.90
4002;DHT22;2015;48.670;9.060;2023-04-03T09:39:52;5.90;99.90
4002;DHT22;2015;48.670;9.060;2023-04-03T09:42:25;5.90;99.90
4002;DHT22;2015;48.670;9.060;2023-04-03T09:45:03;5.90;99.90
4002;DHT22;2015;48.670;9.060;2023-04-03T09:47:36;5.80;99.90
4002;DHT22;2015;48.670;9.060;2023-04-03T09:52:49;5.60;99.90
4002;DHT22;2015;48.670;9.060;2023-04-03T09:55:25;5.40;99.90
4002;DHT22;2015;48.670;9.060;2023-04-03T09:58:04;5.50;99.90
4002;DHT22;2015;48.670;9.060;2023-04-03T10:00:40;5.60;99.90
4002;DHT22;2015;48.670;9.060;2023-04-03T10:03:31;5.70;99.90
4002;DHT22;2015;48.670;9.060;2023-04-03T10:06:24;5.70;99.90
4002;DHT22;2015;48.670;9.060;2023-04-03T10:09:02;5.70;99.90
4002;DHT22;2015;48.670;9.060;2023-04-03T10:11:35;5.70;99.90
4002;DHT22;2015;48.670;9.060;2023-04-03T10:14:16;5.80;99.90
4002;DHT22;2015;48.670;9.060;2023-04-03T10:19:55;6.00;99.90
4002;DHT22;2015;48.670;9.060;2023-04-03T10:31:16;6.30;99.90
4002;DHT22;2015;48.670;9.060;2023-04-03T10:39:32;6.50;99.90
4002;DHT22;2015;48.670;9.060;2023-04-03T10:45:21;6.60;99.90
4002;DHT22;2015;48.670;9.060;2023-04-03T10:48:30;6.40;99.90
4002;DHT22;2015;48.670;9.060;2023-04-03T10:51:24;6.30;99.90
4002;DHT22;2015;48.670;9.060;2023-04-03T10:54:19;6.60;99.90
4002;DHT22;2015;48.670;9.060;2023-04-03T10:57:00;6.80;99.90
4002;DHT22;2015;48.670;9.060;2023-04-03T11:00:04;6.60;99.90
4002;DHT22;2015;48.670;9.060;2023-04-03T11:03:10;6.30;99.90
4002;DHT22;2015;48.670;9.060;2023-04-03T11:05:45;6.10;99.90
4002;DHT22;2015;48.670;9.060;2023-04-03T11:08:25;6.20;99.90
4002;DHT22;2015;48.670;9.060;2023-04-03T11:11:11;6.20;99.90
4002;DHT22;2015;48.670;9.060;2023-04-03T11:17:07;6.40;99.90
4002;DHT22;2015;48.670;9.060;2023-04-03T11:22:37;6.70;99.90
4002;DHT22;2015;48.670;9.060;2023-04-03T11:28:06;6.30;99.90
4002;DHT22;2015;48.670;9.060;2023-04-03T11:33:42;6.10;99.90
4002;DHT22;2015;48.670;9.060;2023-04-03T11:36:22;6.00;99.90
4002;DHT22;2015;48.670;9.060;2023-04-03T11:39:31;6.00;99.90
4002;DHT22;2015;48.670;9.060;2023-04-03T11:47:58;5.80;99.90
4002;DHT22;2015;48.670;9.060;2023-04-03T11:50:43;5.90;99.90
4002;DHT22;2015;48.670;9.060;2023-04-03T11:58:24;6.00;99.90
4002;DHT22;2015;48.670;9.060;2023-04-03T12:01:05;5.70;99.90
4002;DHT22;2015;48.670;9.060;2023-04-03T12:08:47;5.70;99.90
4002;DHT22;2015;48.670;9.060;2023-04-03T12:11:29;5.80;99.90
4002;DHT22;2015;48.670;9.060;2023-04-03T12:14:15;5.90;99.90
4002;DHT22;2015;48.670;9.060;2023-04-03T12:16:47;6.10;99.90
4002;DHT22;2015;48.670;9.060;2023-04-03T12:19:38;6.20;99.90
4002;DHT22;2015;48.670;9.060;2023-04-03T12:22:17;6.10;99.90
4002;DHT22;2015;48.670;9.060;2023-04-03T12:24:52;6.20;99.90
4002;DHT22;2015;48.670;9.060;2023-04-03T12:27:28;6.30;99.90
4002;DHT22;2015;48.670;9.060;2023-04-03T12:32:51;6.20;99.90
4002;DHT22;2015;48.670;9.060;2023-04-03T12:35:51;6.20;99.90
4002;DHT22;2015;48.670;9.060;2023-04-03T12:38:37;6.10;99.90
4002;DHT22;2015;48.670;9.060;2023-04-03T12:44:22;5.90;99.90
4002;DHT22;2015;48.670;9.060;2023-04-03T12:47:00;5.80;99.90
4002;DHT22;2015;48.670;9.060;2023-04-03T12:49:38;5.90;99.90
4002;DHT22;2015;48.670;9.060;2023-04-03T12:52:30;5.90;99.90
4002;DHT22;2015;48.670;9.060;2023-04-03T12:55:11;5.90;99.90
4002;DHT22;2015;48.670;9.060;2023-04-03T12:57:45;6.10;99.90
4002;DHT22;2015;48.670;9.060;2023-04-03T13:02:54;6.50;99.90
4002;DHT22;2015;48.670;9.060;2023-04-03T13:05:28;6.60;99.90
4002;DHT22;2015;48.670;9.060;2023-04-03T13:08:02;6.60;99.90
4002;DHT22;2015;48.670;9.060;2023-04-03T13:13:59;6.60;99.90
4002;DHT22;2015;48.670;9.060;2023-04-03T13:16:32;6.60;99.90
4002;DHT22;2015;48.670;9.060;2023-04-03T13:19:05;6.60;99.90
4002;DHT22;2015;48.670;9.060;2023-04-03T13:21:37;6.70;99.90
4002;DHT22;2015;48.670;9.060;2023-04-03T13:24:09;6.60;99.90
4002;DHT22;2015;48.670;9.060;2023-04-03T13:26:46;6.60;99.90
4002;DHT22;2015;48.670;9.060;2023-04-03T13:29:31;6.70;99.90
4002;DHT22;2015;48.670;9.060;2023-04-03T13:32:04;6.80;99.90
4002;DHT22;2015;48.670;9.060;2023-04-03T13:34:45;6.90;99.90
4002;DHT22;2015;48.670;9.060;2023-04-03T13:37:24;6.90;99.90
4002;DHT22;2015;48.670;9.060;2023-04-03T13:42:40;6.60;99.90
4002;DHT22;2015;48.670;9.060;2023-04-03T13:48:18;6.70;99.90
4002;DHT22;2015;48.670;9.060;2023-04-03T13:51:02;6.70;99.90
4002;DHT22;2015;48.670;9.060;2023-04-03T13:53:43;6.70;99.90
4002;DHT22;2015;48.670;9.060;2023-04-03T13:56:25;6.60;99.90
4002;DHT22;2015;48.670;9.060;2023-04-03T14:04:46;6.50;99.90
4002;DHT22;2015;48.670;9.060;2023-04-03T14:07:17;6.50;99.90
4002;DHT22;2015;48.670;9.060;2023-04-03T14:09:52;6.50;99.90
4002;DHT22;2015;48.670;9.060;2023-04-03T14:12:32;6.50;99.90
4002;DHT22;2015;48.670;9.060;2023-04-03T14:15:16;6.50;99.90
4002;DHT22;2015;48.670;9.060;2023-04-03T14:17:48;6.50;99.90
4002;DHT22;2015;48.670;9.060;2023-04-03T14:20:23;6.60;99.90
4002;DHT22;2015;48.670;9.060;2023-04-03T14:22:55;6.60;99.90
4002;DHT22;2015;48.670;9.060;2023-04-03T14:25:27;6.70;99.90
4002;DHT22;2015;48.670;9.060;2023-04-03T14:27:59;6.60;99.90
4002;DHT22;2015;48.670;9.060;2023-04-03T14:30:33;6.60;99.90
4002;DHT22;2015;48.670;9.060;2023-04-03T14:33:06;6.60;99.90
4002;DHT22;2015;48.670;9.060;2023-04-03T14:35:38;6.70;99.90
4002;DHT22;2015;48.670;9.060;2023-04-03T14:38:30;6.70;99.90
4002;DHT22;2015;48.670;9.060;2023-04-03T14:41:03;6.60;99.90
4002;DHT22;2015;48.670;9.060;2023-04-03T14:43:48;6.60;99.90
4002;DHT22;2015;48.670;9.060;2023-04-03T14:46:32;6.50;99.90
4002;DHT22;2015;48.670;9.060;2023-04-03T14:49:27;6.40;99.90
4002;DHT22;2015;48.670;9.060;2023-04-03T14:52:00;6.30;99.90
4002;DHT22;2015;48.670;9.060;2023-04-03T14:54:34;6.30;99.90
4002;DHT22;2015;48.670;9.060;2023-04-03T14:57:09;6.10;99.90
4002;DHT22;2015;48.670;9.060;2023-04-03T14:59:44;6.00;99.90
4002;DHT22;2015;48.670;9.060;2023-04-03T15:02:35;6.00;99.90
4002;DHT22;2015;48.670;9.060;2023-04-03T15:05:09;6.10;99.90
4002;DHT22;2015;48.670;9.060;2023-04-03T15:07:43;6.20;99.90
4002;DHT22;2015;48.670;9.060;2023-04-03T15:10:21;6.10;99.90
4002;DHT22;2015;48.670;9.060;2023-04-03T15:12:56;6.00;99.90
4002;DHT22;2015;48.670;9.060;2023-04-03T15:15:29;6.10;99.90
4002;DHT22;2015;48.670;9.060;2023-04-03T15:18:03;6.40;99.90
4002;DHT22;2015;48.670;9.060;2023-04-03T15:20:35;6.50;99.90
4002;DHT22;2015;48.670;9.060;2023-04-03T15:23:08;6.50;99.90
4002;DHT22;2015;48.670;9.060;2023-04-03T15:25:40;6.50;99.90
4002;DHT22;2015;48.670;9.060;2023-04-03T15:30:54;6.30;99.90
4002;DHT22;2015;48.670;9.060;2023-04-03T15:33:27;6.20;99.90
4002;DHT22;2015;48.670;9.060;2023-04-03T15:35:59;6.10;99.90
4002;DHT22;2015;48.670;9.060;2023-04-03T15:38:38;6.10;99.90
4002;DHT22;2015;48.670;9.060;2023-04-03T15:41:10;6.10;99.90
4002;DHT22;2015;48.670;9.060;2023-04-03T15:43:44;6.20;99.90
4002;DHT22;2015;48.670;9.060;2023-04-03T15:46:16;6.10;99.90
4002;DHT22;2015;48.670;9.060;2023-04-03T15:48:48;6.00;99.90
4002;DHT22;2015;48.670;9.060;2023-04-03T15:51:21;6.10;99.90
4002;DHT22;2015;48.670;9.060;2023-04-03T15:53:52;6.10;99.90
4002;DHT22;2015;48.670;9.060;2023-04-03T15:56:24;6.20;99.90
4002;DHT22;2015;48.670;9.060;2023-04-03T15:58:56;6.20;99.90
4002;DHT22;2015;48.670;9.060;2023-04-03T16:01:28;6.20;99.90
4002;DHT22;2015;48.670;9.060;2023-04-03T16:04:00;6.10;99.90
4002;DHT22;2015;48.670;9.060;2023-04-03T16:06:32;6.00;99.90
4002;DHT22;2015;48.670;9.060;2023-04-03T16:09:06;5.90;99.90
4002;DHT22;2015;48.670;9.060;2023-04-03T16:11:38;5.90;99.90
4002;DHT22;2015;48.670;9.060;2023-04-03T16:14:11;5.90;99.90
4002;DHT22;2015;48.670;9.060;2023-04-03T16:16:43;5.80;99.90
4002;DHT22;2015;48.670;9.060;2023-04-03T16:19:15;5.70;99.90
4002;DHT22;2015;48.670;9.060;2023-04-03T16:21:47;5.60;99.90
4002;DHT22;2015;48.670;9.060;2023-04-03T16:24:19;5.50;99.90
4002;DHT22;2015;48.670;9.060;2023-04-03T16:26:51;5.50;99.90
4002;DHT22;2015;48.670;9.060;2023-04-03T16:29:24;5.50;99.90
4002;DHT22;2015;48.670;9.060;2023-04-03T16:31:57;5.70;99.90
4002;DHT22;2015;48.670;9.060;2023-04-03T16:34:29;5.70;99.90
4002;DHT22;2015;48.670;9.060;2023-04-03T16:37:04;5.80;99.90
4002;DHT22;2015;48.670;9.060;2023-04-03T16:39:36;5.80;99.90
4002;DHT22;2015;48.670;9.060;2023-04-03T16:42:08;5.80;99.90
4002;DHT22;2015;48.670;9.060;2023-04-03T16:44:41;5.80;99.90
4002;DHT22;2015;48.670;9.060;2023-04-03T16:47:13;5.80;99.90
4002;DHT22;2015;48.670;9.060;2023-04-03T16:49:46;5.80;99.90
4002;DHT22;2015;48.670;9.060;2023-04-03T16:52:18;5.80;99.90
4002;DHT22;2015;48.670;9.060;2023-04-03T16:54:50;5.70;99.90
4002;DHT22;2015;48.670;9.060;2023-04-03T16:57:26;5.60;99.90
4002;DHT22;2015;48.670;9.060;2023-04-03T16:59:58;5.50;99.90
4002;DHT22;2015;48.670;9.060;2023-04-03T17:02:30;5.50;99.90
4002;DHT22;2015;48.670;9.060;2023-04-03T17:05:02;5.40;99.90
4002;DHT22;2015;48.670;9.060;2023-04-03T17:07:33;5.40;99.90
4002;DHT22;2015;48.670;9.060;2023-04-03T17:10:06;5.40;99.90
4002;DHT22;2015;48.670;9.060;2023-04-03T17:12:38;5.30;99.90
4002;DHT22;2015;48.670;9.060;2023-04-03T17:15:10;5.30;99.90
4002;DHT22;2015;48.670;9.060;2023-04-03T17:17:42;5.40;99.90
4002;DHT22;2015;48.670;9.060;2023-04-03T17:20:14;5.40;99.90
4002;DHT22;2015;48.670;9.060;2023-04-03T17:22:46;5.40;99.90
4002;DHT22;2015;48.670;9.060;2023-04-03T17:25:18;5.40;99.90
4002;DHT22;2015;48.670;9.060;2023-04-03T17:27:49;5.30;99.90
4002;DHT22;2015;48.670;9.060;2023-04-03T17:30:21;5.30;99.90
4002;DHT22;2015;48.670;9.060;2023-04-03T17:32:53;5.30;99.90
4002;DHT22;2015;48.670;9.060;2023-04-03T17:35:25;5.20;99.90
4002;DHT22;2015;48.670;9.060;2023-04-03T17:37:57;5.20;99.90
4002;DHT22;2015;48.670;9.060;2023-04-03T17:40:28;5.20;99.90
4002;DHT22;2015;48.670;9.060;2023-04-03T17:43:00;5.20;99.90
4002;DHT22;2015;48.670;9.060;2023-04-03T17:45:32;5.10;99.90
4002;DHT22;2015;48.670;9.060;2023-04-03T17:48:04;5.20;99.90
4002;DHT22;2015;48.670;9.060;2023-04-03T17:50:36;5.10;99.90
4002;DHT22;2015;48.670;9.060;2023-04-03T17:53:08;5.20;99.90
4002;DHT22;2015;48.670;9.060;2023-04-03T17:55:40;5.10;99.90
4002;DHT22;2015;48.670;9.060;2023-04-03T17:58:12;5.10;99.90
4002;DHT22;2015;48.670;9.060;2023-04-03T18:00:43;5.10;99.90
4002;DHT22;2015;48.670;9.060;2023-04-03T18:03:15;5.00;99.90
4002;DHT22;2015;48.670;9.060;2023-04-03T18:05:47;5.00;99.90
4002;DHT22;2015;48.670;9.060;2023-04-03T18:08:21;5.00;99.90
4002;DHT22;2015;48.670;9.060;2023-04-03T18:10:53;4.90;99.90
4002;DHT22;2015;48.670;9.060;2023-04-03T18:13:26;4.90;99.90
4002;DHT22;2015;48.670;9.060;2023-04-03T18:15:58;4.90;99.90
4002;DHT22;2015;48.670;9.060;2023-04-03T18:18:30;4.90;99.90
4002;DHT22;2015;48.670;9.060;2023-04-03T18:21:02;4.90;99.90
4002;DHT22;2015;48.670;9.060;2023-04-03T18:23:34;4.80;99.90
4002;DHT22;2015;48.670;9.060;2023-04-03T18:26:09;4.80;99.90
4002;DHT22;2015;48.670;9.060;2023-04-03T18:28:46;4.70;99.90
4002;DHT22;2015;48.670;9.060;2023-04-03T18:31:19;4.70;99.90
4002;DHT22;2015;48.670;9.060;2023-04-03T18:33:51;4.70;99.90
4002;DHT22;2015;48.670;9.060;2023-04-03T18:36:26;4.70;99.90
4002;DHT22;2015;48.670;9.060;2023-04-03T18:38:58;4.60;99.90
4002;DHT22;2015;48.670;9.060;2023-04-03T18:41:31;4.60;99.90
4002;DHT22;2015;48.670;9.060;2023-04-03T18:44:07;4.50;99.90
4002;DHT22;2015;48.670;9.060;2023-04-03T18:46:40;4.50;99.90
4002;DHT22;2015;48.670;9.060;2023-04-03T18:49:13;4.40;99.90